Nordic Bothnia — 3EVU9 — position and weather

sailwx.info

Track history (hours):
 
Tides and Currents Weather Stations Pressure Air Temp Water Temp Dewpoint Dewpoint Depression Visibility Wind Speed Wind Dir Waves Ship Positions

Nordic Bothnia

Last reported at 2018-Jul-02 02:23 UTC. Time now 2018-Jul-19 07:43 UTC.
Position N 49°31' W 004°22'.
Warning: this ship's position is 17 days out of date.

Length 189 m; draft 9.2 m.

Type: Cargo ship. MMSI: 352212000.

Date/timePositionNaut miles runAvg speedWind from/ knotsBaromVisibWave heightAir tempDewpointWater temp
2018-Jul-02 02:23N 49°31' W 004°22'2313.5
2018-Jul-02 00:41N 49°41' W 003°50'1013.1
2018-Jul-01 23:55N 49°46' W 003°37'512.6
2018-Jul-01 23:30N 49°49' W 003°29'612.1
2018-Jul-01 23:00N 49°51' W 003°21'611.7
2018-Jul-01 22:31N 49°54' W 003°13'611.3
2018-Jul-01 22:00N 49°56' W 003°05'611.0
2018-Jul-01 21:30N 49°59' W 002°58'510.9
2018-Jul-01 21:00N 50°01' W 002°50'611.1
2018-Jul-01 20:30N 50°03' W 002°42'611.3
2018-Jul-01 20:00N 50°04' W 002°33'911.7
2018-Jul-01 19:14N 50°07' W 002°20'412.3
2018-Jul-01 18:57N 50°09' W 002°15'5412.0
2018-Jul-01 14:26N 50°23' W 000°53'614.1
2018-Jul-01 13:59N 50°25' W 000°43'2412.6
2018-Jul-01 12:02N 50°31' W 000°06'111.6
2018-Jul-01 11:56N 50°31' W 000°04'511.4
2018-Jul-01 11:30N 50°32' E 000°03'611.0
2018-Jul-01 10:59N 50°34' E 000°12'510.9
2018-Jul-01 10:30N 50°36' E 000°20'611.1
2018-Jul-01 09:58N 50°37' E 000°29'511.7
2018-Jul-01 09:30N 50°39' E 000°37'612.5
2018-Jul-01 09:00N 50°42' E 000°45'713.7
2018-Jul-01 08:30N 50°46' E 000°54'714.2
2018-Jul-01 08:00N 50°50' E 001°03'714.7
2018-Jul-01 07:31N 50°55' E 001°11'714.8
2018-Jul-01 07:01N 51°00' E 001°20'714.3
2018-Jul-01 06:30N 51°05' E 001°29'713.3
2018-Jul-01 06:00N 51°09' E 001°37'612.2
2018-Jul-01 05:30N 51°13' E 001°44'611.7
2018-Jul-01 05:00N 51°18' E 001°49'611.3
2018-Jul-01 04:30N 51°24' E 001°52'510.6
2018-Jul-01 04:00N 51°28' E 001°56'510.7
2018-Jul-01 03:30N 51°32' E 002°02'611.0
2018-Jul-01 03:00N 51°36' E 002°08'611.1
2018-Jul-01 02:30N 51°40' E 002°14'611.1
2018-Jul-01 02:00N 51°44' E 002°21'611.7
2018-Jul-01 01:30N 51°48' E 002°27'612.2
2018-Jul-01 01:00N 51°53' E 002°33'612.5
2018-Jul-01 00:30N 51°59' E 002°35'713.4
2018-Jul-01 00:00N 52°06' E 002°36'713.7
2018-Jun-30 23:31N 52°13' E 002°38'714.2
2018-Jun-30 23:00N 52°19' E 002°43'714.1
2018-Jun-30 22:31N 52°25' E 002°49'714.1
2018-Jun-30 22:00N 52°31' E 002°55'714.0
2018-Jun-30 21:30N 52°37' E 003°00'713.7
2018-Jun-30 21:00N 52°43' E 003°06'713.3
2018-Jun-30 20:30N 52°49' E 003°11'612.9
2018-Jun-30 20:00N 52°55' E 003°15'612.5
2018-Jun-30 19:30N 53°01' E 003°19'612.1
2018-Jun-30 19:00N 53°07' E 003°22'611.9
2018-Jun-30 18:30N 53°13' E 003°25'611.4
2018-Jun-30 17:59N 53°18' E 003°27'611.3
2018-Jun-30 17:30N 53°24' E 003°30'611.5
2018-Jun-30 17:00N 53°29' E 003°33'611.7
2018-Jun-30 16:30N 53°35' E 003°36'612.2
2018-Jun-30 16:00N 53°41' E 003°39'612.1
2018-Jun-30 15:29N 53°45' E 003°45'613.0
2018-Jun-30 15:00N 53°49' E 003°53'713.1
2018-Jun-30 14:30N 53°53' E 004°02'713.1
2018-Jun-30 14:00N 53°57' E 004°11'613.0
2018-Jun-30 13:30N 54°01' E 004°20'1112.5
2018-Jun-30 12:38N 54°10' E 004°31'512.5
2018-Jun-30 12:13N 54°14' E 004°36'312.4
2018-Jun-30 12:00N 54°16' E 004°39'612.4
2018-Jun-30 11:29N 54°21' E 004°45'2612.1
2018-Jun-30 09:21N 54°42' E 005°12'2812.1
2018-Jun-30 07:04N 55°05' E 005°39'212.2
2018-Jun-30 06:56N 55°06' E 005°41'1312.4
2018-Jun-30 05:54N 55°17' E 005°53'11612.6
2018-Jun-29 20:42N 56°53' E 007°49'7112.0
2018-Jun-29 14:48N 57°40' E 009°27'412.3
2018-Jun-29 14:30N 57°41' E 009°33'37 3.0
2018-Jun-29 02:15N 57°40' E 010°42'310.6
2018-Jun-29 01:57N 57°39' E 010°47'612.8
2018-Jun-29 01:30N 57°36' E 010°56'713.2
2018-Jun-29 01:00N 57°33' E 011°07'713.2
2018-Jun-29 00:30N 57°31' E 011°19'611.7
2018-Jun-29 00:00N 57°27' E 011°27'611.5
2018-Jun-28 23:30N 57°21' E 011°31'611.4
2018-Jun-28 23:00N 57°16' E 011°34'12111.2
2018-Jun-28 12:12N 55°16' E 011°04'411.9
2018-Jun-28 11:50N 55°12' E 011°06'413.1
2018-Jun-28 11:30N 55°08' E 011°03'713.7
2018-Jun-28 11:00N 55°01' E 011°02'713.1
2018-Jun-28 10:30N 54°56' E 010°56'714.0
2018-Jun-28 10:00N 54°49' E 010°52'713.4
2018-Jun-28 09:30N 54°42' E 010°52'713.2
2018-Jun-28 09:00N 54°39' E 011°02'713.5
2018-Jun-28 08:31N 54°36' E 011°13'612.9
2018-Jun-28 08:00N 54°33' E 011°23'713.4
2018-Jun-28 07:30N 54°30' E 011°33'713.2
2018-Jun-28 07:00N 54°27' E 011°43'713.2
2018-Jun-28 06:30N 54°26' E 011°55'612.9
2018-Jun-28 06:01N 54°27' E 012°06'510.6
2018-Jun-28 05:30N 54°30' E 012°13'612.5
2018-Jun-28 05:01N 54°36' E 012°16'5 9.5
2018-Jun-28 04:30N 54°38' E 012°23'510.4
2018-Jun-28 04:00N 54°41' E 012°30'510.9
2018-Jun-28 03:30N 54°45' E 012°38'613.0
2018-Jun-28 03:01N 54°48' E 012°48'713.0
2018-Jun-28 02:31N 54°50' E 012°58'713.1
2018-Jun-28 02:00N 54°52' E 013°09'713.1
2018-Jun-28 01:30N 54°54' E 013°20'612.6
2018-Jun-28 01:01N 54°57' E 013°30'612.6
2018-Jun-28 00:30N 54°59' E 013°40'612.6
2018-Jun-28 00:00N 55°01' E 013°51'612.7
2018-Jun-27 23:30N 55°04' E 014°00'612.5
2018-Jun-27 23:00N 55°08' E 014°08'612.7
2018-Jun-27 22:30N 55°13' E 014°16'612.8
2018-Jun-27 22:00N 55°18' E 014°23'612.6
2018-Jun-27 21:30N 55°23' E 014°30'612.9
2018-Jun-27 21:00N 55°27' E 014°38'612.9
2018-Jun-27 20:30N 55°31' E 014°48'612.9
2018-Jun-27 20:00N 55°34' E 014°58'712.9
2018-Jun-27 19:30N 55°37' E 015°08'612.8
2018-Jun-27 19:00N 55°40' E 015°17'612.8
2018-Jun-27 18:30N 55°43' E 015°27'713.0
2018-Jun-27 18:00N 55°47' E 015°37'612.7
2018-Jun-27 17:30N 55°50' E 015°47'612.5
2018-Jun-27 17:00N 55°53' E 015°57'612.5
2018-Jun-27 16:30N 55°56' E 016°06'612.8
2018-Jun-27 16:00N 55°59' E 016°16'612.8
2018-Jun-27 15:30N 56°03' E 016°26'612.8
2018-Jun-27 15:00N 56°06' E 016°36'612.6
2018-Jun-27 14:30N 56°10' E 016°45'612.6
2018-Jun-27 14:01N 56°13' E 016°54'612.5
2018-Jun-27 13:30N 56°17' E 017°03'612.6
2018-Jun-27 13:00N 56°21' E 017°12'612.7
2018-Jun-27 12:30N 56°25' E 017°21'612.7
2018-Jun-27 12:00N 56°29' E 017°31'612.7
2018-Jun-27 11:30N 56°33' E 017°40'612.7
2018-Jun-27 11:00N 56°37' E 017°48'712.7
2018-Jun-27 10:29N 56°41' E 017°58'613.1
2018-Jun-27 10:00N 56°45' E 018°07'712.8
2018-Jun-27 09:29N 56°48' E 018°17'10712.7
2018-Jun-27 01:07N 58°13' E 020°17'312.4
2018-Jun-27 00:53N 58°16' E 020°20'612.3
2018-Jun-27 00:25N 58°20' E 020°27'2412.4
2018-Jun-26 22:28N 58°40' E 020°54'912.6
2018-Jun-26 21:43N 58°47' E 021°04'1412.3
2018-Jun-26 20:36N 58°59' E 021°20'112.5
2018-Jun-26 20:29N 58°60' E 021°22'612.5
2018-Jun-26 20:01N 59°05' E 021°29'612.6
2018-Jun-26 19:30N 59°10' E 021°36'612.5
2018-Jun-26 19:00N 59°14' E 021°45'612.7
2018-Jun-26 18:30N 59°18' E 021°55'2112.5
2018-Jun-26 16:48N 59°31' E 022°28'1012.6
2018-Jun-26 16:01N 59°34' E 022°47'612.6
2018-Jun-26 15:30N 59°36' E 022°59'611.9
2018-Jun-26 15:00N 59°37' E 023°10'612.4
2018-Jun-26 14:30N 59°39' E 023°22'612.2
2018-Jun-26 14:00N 59°41' E 023°34'612.1
2018-Jun-26 13:30N 59°42' E 023°45'812.3
2018-Jun-26 12:53N 59°44' E 023°60'512.3
2018-Jun-26 12:30N 59°45' E 024°09'612.5
2018-Jun-26 12:00N 59°47' E 024°21'612.0
2018-Jun-26 11:30N 59°48' E 024°33'612.5
2018-Jun-26 11:00N 59°49' E 024°45'612.4
2018-Jun-26 10:30N 59°51' E 024°57'612.2
2018-Jun-26 10:00N 59°52' E 025°09'612.3
2018-Jun-26 09:30N 59°53' E 025°21'712.7
2018-Jun-26 08:59N 59°54' E 025°34'612.4
2018-Jun-26 08:30N 59°55' E 025°45'612.7
2018-Jun-26 08:00N 59°57' E 025°58'612.6
2018-Jun-26 07:30N 59°58' E 026°10'612.1
2018-Jun-26 07:00N 59°60' E 026°22'612.2
2018-Jun-26 06:30N 60°01' E 026°34'814.6
2018-Jun-26 05:57N 60°00' E 026°50'511.6
2018-Jun-26 05:30N 59°59' E 026°60'510.4
2018-Jun-26 05:00N 60°02' E 027°09'612.4
2018-Jun-26 04:30N 60°05' E 027°20'612.2
2018-Jun-26 04:00N 60°08' E 027°31'612.3
2018-Jun-26 03:30N 60°11' E 027°41'611.8
2018-Jun-26 03:00N 60°11' E 027°53'712.4
2018-Jun-26 02:29N 60°10' E 028°06'612.2
2018-Jun-26 02:00N 60°08' E 028°17'612.5
2018-Jun-26 01:30N 60°04' E 028°27'612.4
2018-Jun-26 01:01N 60°03' E 028°39'612.5
2018-Jun-26 00:30N 60°03' E 028°52'612.8
2018-Jun-26 00:00N 60°03' E 029°05'913.1
2018-Jun-25 23:21N 60°02' E 029°22'4 9.9
2018-Jun-25 23:00N 60°02' E 029°29'611.3
2018-Jun-25 22:30N 59°60' E 029°40'510.0
2018-Jun-25 22:00N 59°58' E 029°48'510.7
2018-Jun-25 21:30N 59°56' E 029°58'5 9.6
2018-Jun-25 21:00N 59°54' E 030°07'3 5.8
2018-Jun-25 20:30N 59°53' E 030°13'0 0.9
2018-Jun-25 20:00N 59°54' E 030°14'0 0.0
2018-Jun-25 19:27N 59°54' E 030°14'0 0.0
2018-Jun-25 18:54N 59°54' E 030°14'0 0.0
2018-Jun-25 18:15N 59°54' E 030°14'0 0.0
2018-Jun-25 17:59N 59°54' E 030°14'0 0.0
2018-Jun-25 17:30N 59°54' E 030°14'0 0.0
2018-Jun-25 16:57N 59°54' E 030°14'0 0.0
2018-Jun-25 16:30N 59°54' E 030°14'0 0.0
2018-Jun-25 15:59N 59°54' E 030°14'0 0.0
2018-Jun-25 15:20N 59°54' E 030°14'0 0.0
2018-Jun-25 15:00N 59°54' E 030°14'0 0.0
2018-Jun-25 14:11N 59°54' E 030°14'0 0.0
2018-Jun-25 13:53N 59°54' E 030°14'0 0.0
2018-Jun-25 13:23N 59°54' E 030°14'0 0.0
2018-Jun-25 12:36N 59°54' E 030°14'0 0.0
2018-Jun-25 12:30N 59°54' E 030°14'0 0.0
2018-Jun-25 11:54N 59°54' E 030°14'0 0.0
2018-Jun-25 11:23N 59°54' E 030°14'0 0.0
2018-Jun-25 10:54N 59°54' E 030°14'0 0.0
2018-Jun-25 10:22N 59°54' E 030°14'0 0.0
2018-Jun-25 09:59N 59°54' E 030°14'0 0.0
2018-Jun-25 09:11N 59°54' E 030°14'0 0.0
2018-Jun-25 06:48N 59°54' E 030°14'0 0.0
2018-Jun-25 04:51N 59°54' E 030°14'0 0.0
2018-Jun-25 04:29N 59°54' E 030°14'0 0.0
2018-Jun-25 03:56N 59°54' E 030°14'0 0.0
2018-Jun-25 03:30N 59°54' E 030°14'0 0.0
2018-Jun-25 02:59N 59°54' E 030°14'0 0.0
2018-Jun-25 02:20N 59°54' E 030°14'0 0.0
2018-Jun-25 01:47N 59°54' E 030°14'0 0.0
2018-Jun-25 01:30N 59°54' E 030°14'0 0.0
2018-Jun-25 01:00N 59°54' E 030°14'0 0.0
2018-Jun-25 00:29N 59°54' E 030°14'0 0.0
2018-Jun-24 23:57N 59°54' E 030°14'0 0.0
2018-Jun-24 23:29N 59°54' E 030°14'0 0.0
2018-Jun-24 22:59N 59°54' E 030°14'0 0.0
2018-Jun-24 22:29N 59°54' E 030°14'0 0.0
2018-Jun-24 21:59N 59°54' E 030°14'0 0.0
2018-Jun-24 21:29N 59°54' E 030°14'0 0.0
2018-Jun-24 20:56N 59°54' E 030°14'0 0.0
2018-Jun-24 19:12N 59°54' E 030°14'0 0.0
2018-Jun-24 18:56N 59°54' E 030°14'0 0.0
2018-Jun-24 18:20N 59°54' E 030°14'0 0.0
2018-Jun-24 18:00N 59°54' E 030°14'0 0.0
2018-Jun-24 17:30N 59°54' E 030°14'0 0.0
2018-Jun-24 16:56N 59°54' E 030°14'0 0.0
2018-Jun-24 16:09N 59°54' E 030°14'0 0.0
2018-Jun-24 16:00N 59°54' E 030°14'0 0.0
2018-Jun-24 15:24N 59°54' E 030°14'0 0.0
2018-Jun-24 14:41N 59°54' E 030°14'0 0.0
2018-Jun-24 14:24N 59°54' E 030°14'0 0.0
2018-Jun-24 13:45N 59°54' E 030°14'0 0.0
2018-Jun-24 13:29N 59°54' E 030°14'0 0.0
2018-Jun-24 11:26N 59°54' E 030°14'0 0.0
2018-Jun-24 10:47N 59°54' E 030°14'0 0.0
2018-Jun-24 10:24N 59°54' E 030°14'0 0.0
2018-Jun-24 09:59N 59°54' E 030°14'0 0.0
2018-Jun-24 09:28N 59°54' E 030°14'0 0.0
2018-Jun-24 08:54N 59°54' E 030°14'0 0.0
2018-Jun-24 08:28N 59°54' E 030°14'0 0.0
2018-Jun-24 07:58N 59°54' E 030°14'0 0.0
2018-Jun-24 07:27N 59°54' E 030°14'0 0.0
2018-Jun-24 06:09N 59°54' E 030°14'0 0.0
2018-Jun-24 05:59N 59°54' E 030°14'0 0.0
2018-Jun-24 05:29N 59°54' E 030°14'0 0.0
2018-Jun-24 04:48N 59°54' E 030°14'0 0.0
2018-Jun-24 04:29N 59°54' E 030°14'0 0.0
2018-Jun-24 04:00N 59°54' E 030°14'0 0.0
2018-Jun-24 03:29N 59°54' E 030°14'0 0.0
2018-Jun-24 02:48N 59°54' E 030°14'0 0.0
2018-Jun-24 02:29N 59°54' E 030°14'0 0.0
2018-Jun-24 02:00N 59°54' E 030°14'0 0.0
2018-Jun-24 01:30N 59°54' E 030°14'0 0.0
2018-Jun-24 00:59N 59°54' E 030°14'0 0.0
2018-Jun-24 00:29N 59°54' E 030°14'0 0.0
2018-Jun-23 23:59N 59°54' E 030°14'0 0.0
2018-Jun-23 23:29N 59°54' E 030°14'0 0.0
2018-Jun-23 22:59N 59°54' E 030°14'0 0.0
2018-Jun-23 22:27N 59°54' E 030°14'0 0.0
2018-Jun-23 21:53N 59°54' E 030°14'0 0.0
2018-Jun-23 21:29N 59°54' E 030°14'0 0.0
2018-Jun-23 20:10N 59°54' E 030°14'0 0.0
2018-Jun-23 20:00N 59°54' E 030°14'0 0.0
2018-Jun-23 19:07N 59°54' E 030°14'0 0.0
2018-Jun-23 18:53N 59°54' E 030°14'0 0.0
2018-Jun-23 18:30N 59°54' E 030°14'0 0.0
2018-Jun-23 17:56N 59°54' E 030°14'0 0.0
2018-Jun-23 17:12N 59°54' E 030°14'0 0.0
2018-Jun-23 16:54N 59°54' E 030°14'0 0.0
2018-Jun-23 16:19N 59°54' E 030°14'0 0.0
2018-Jun-23 15:59N 59°54' E 030°14'0 0.0
2018-Jun-23 15:29N 59°54' E 030°14'0 0.0
2018-Jun-23 14:59N 59°54' E 030°14'0 0.0
2018-Jun-23 14:30N 59°54' E 030°14'0 0.0
2018-Jun-23 13:56N 59°54' E 030°14'0 0.0
2018-Jun-23 13:29N 59°54' E 030°14'0 0.0
2018-Jun-23 12:53N 59°54' E 030°14'0 0.0
2018-Jun-23 12:26N 59°54' E 030°14'0 0.0
2018-Jun-23 12:00N 59°54' E 030°14'0 0.0
2018-Jun-23 11:30N 59°54' E 030°14'0 0.0
2018-Jun-23 10:54N 59°54' E 030°14'0 0.0
2018-Jun-23 10:14N 59°54' E 030°14'0 0.0
2018-Jun-23 09:56N 59°54' E 030°14'0 0.0
2018-Jun-23 09:27N 59°54' E 030°14'0 0.0
2018-Jun-23 08:41N 59°54' E 030°14'0 0.0
2018-Jun-23 08:30N 59°54' E 030°14'0 0.0
2018-Jun-23 07:57N 59°54' E 030°14'0 0.0
2018-Jun-23 07:26N 59°54' E 030°14'0 0.0
2018-Jun-23 06:53N 59°54' E 030°14'0 0.0
2018-Jun-23 06:30N 59°54' E 030°14'0 0.0
2018-Jun-23 06:00N 59°54' E 030°14'0 0.0
2018-Jun-23 05:27N 59°54' E 030°14'0 0.0
2018-Jun-23 04:57N 59°54' E 030°14'0 0.0
2018-Jun-23 04:21N 59°54' E 030°14'0 0.0
2018-Jun-23 03:56N 59°54' E 030°14'0 0.0
2018-Jun-23 03:30N 59°54' E 030°14'0 0.0
2018-Jun-23 03:00N 59°54' E 030°14'0 0.0
2018-Jun-23 02:26N 59°54' E 030°14'0 0.0
2018-Jun-23 01:54N 59°54' E 030°14'0 0.0
2018-Jun-23 01:30N 59°54' E 030°14'0 0.0
2018-Jun-23 00:59N 59°54' E 030°14'0 0.0
2018-Jun-23 00:23N 59°54' E 030°14'0 0.0
2018-Jun-22 23:59N 59°54' E 030°14'0 0.0
2018-Jun-22 23:02N 59°54' E 030°14'0 0.0
2018-Jun-22 22:59N 59°54' E 030°14'0 0.0
2018-Jun-22 22:21N 59°54' E 030°14'0 0.0
2018-Jun-22 21:59N 59°54' E 030°14'0 0.0
2018-Jun-22 21:29N 59°54' E 030°14'0 0.0
2018-Jun-22 20:57N 59°54' E 030°14'0 0.0
2018-Jun-22 20:30N 59°54' E 030°14'0 0.0
2018-Jun-22 19:51N 59°54' E 030°14'0 0.0
2018-Jun-22 19:27N 59°54' E 030°14'0 0.0
2018-Jun-22 18:59N 59°54' E 030°14'0 0.0
2018-Jun-22 18:23N 59°54' E 030°14'0 0.0
2018-Jun-22 17:56N 59°54' E 030°14'0 0.0
2018-Jun-22 17:23N 59°54' E 030°14'0 0.0
2018-Jun-22 16:56N 59°54' E 030°14'0 0.0
2018-Jun-22 16:26N 59°54' E 030°14'0 0.0
2018-Jun-22 15:59N 59°54' E 030°14'0 0.0
2018-Jun-22 15:30N 59°54' E 030°14'0 0.0
2018-Jun-22 14:59N 59°54' E 030°14'0 0.0
2018-Jun-22 14:29N 59°54' E 030°14'0 0.0
2018-Jun-22 13:57N 59°54' E 030°14'0 0.0
2018-Jun-22 13:29N 59°54' E 030°14'0 0.0
2018-Jun-22 12:56N 59°54' E 030°14'0 0.0
2018-Jun-22 12:30N 59°54' E 030°14'0 0.0
2018-Jun-22 11:56N 59°54' E 030°14'0 0.0
2018-Jun-22 11:29N 59°54' E 030°14'0 0.0
2018-Jun-22 10:59N 59°54' E 030°14'0 0.0
2018-Jun-22 10:26N 59°54' E 030°14'0 0.0
2018-Jun-22 09:56N 59°54' E 030°14'0 0.0
2018-Jun-22 09:29N 59°54' E 030°14'0 0.0
2018-Jun-22 08:59N 59°54' E 030°14'0 0.0
2018-Jun-22 08:29N 59°54' E 030°14'0 0.0
2018-Jun-22 07:56N 59°54' E 030°14'0 0.0
2018-Jun-22 07:29N 59°54' E 030°14'0 0.0
2018-Jun-22 06:59N 59°54' E 030°14'0 0.0
2018-Jun-22 06:29N 59°54' E 030°14'0 0.0
2018-Jun-22 05:59N 59°54' E 030°14'0 0.0
2018-Jun-22 05:29N 59°54' E 030°14'0 0.0
2018-Jun-22 04:59N 59°54' E 030°14'0 0.0
2018-Jun-22 04:29N 59°54' E 030°14'0 0.0
2018-Jun-22 03:59N 59°54' E 030°14'0 0.0
2018-Jun-22 03:29N 59°54' E 030°14'0 0.0
2018-Jun-22 02:59N 59°54' E 030°14'0 0.0
2018-Jun-22 02:29N 59°54' E 030°14'  
Track history (hours):
 
Tides and Currents Weather Stations Pressure Air Temp Water Temp Dewpoint Dewpoint Depression Visibility Wind Speed Wind Dir Waves Ship Positions

Nordic Bothnia

Last reported at 2018-Jul-02 02:23 UTC. Time now 2018-Jul-19 07:43 UTC.
Position N 49°31' W 004°22'.
Warning: this ship's position is 17 days out of date.

Length 189 m; draft 9.2 m.

Type: Cargo ship. MMSI: 352212000.

Date/timePositionNaut miles runAvg speedWind from/ knotsBaromVisibWave heightAir tempDewpointWater temp
2018-Jul-02 02:23N 49°31' W 004°22'2313.5
2018-Jul-02 00:41N 49°41' W 003°50'1013.1
2018-Jul-01 23:55N 49°46' W 003°37'512.6
2018-Jul-01 23:30N 49°49' W 003°29'612.1
2018-Jul-01 23:00N 49°51' W 003°21'611.7
2018-Jul-01 22:31N 49°54' W 003°13'611.3
2018-Jul-01 22:00N 49°56' W 003°05'611.0
2018-Jul-01 21:30N 49°59' W 002°58'510.9
2018-Jul-01 21:00N 50°01' W 002°50'611.1
2018-Jul-01 20:30N 50°03' W 002°42'611.3
2018-Jul-01 20:00N 50°04' W 002°33'911.7
2018-Jul-01 19:14N 50°07' W 002°20'412.3
2018-Jul-01 18:57N 50°09' W 002°15'5412.0
2018-Jul-01 14:26N 50°23' W 000°53'614.1
2018-Jul-01 13:59N 50°25' W 000°43'2412.6
2018-Jul-01 12:02N 50°31' W 000°06'111.6
2018-Jul-01 11:56N 50°31' W 000°04'511.4
2018-Jul-01 11:30N 50°32' E 000°03'611.0
2018-Jul-01 10:59N 50°34' E 000°12'510.9
2018-Jul-01 10:30N 50°36' E 000°20'611.1
2018-Jul-01 09:58N 50°37' E 000°29'511.7
2018-Jul-01 09:30N 50°39' E 000°37'612.5
2018-Jul-01 09:00N 50°42' E 000°45'713.7
2018-Jul-01 08:30N 50°46' E 000°54'714.2
2018-Jul-01 08:00N 50°50' E 001°03'714.7
2018-Jul-01 07:31N 50°55' E 001°11'714.8
2018-Jul-01 07:01N 51°00' E 001°20'714.3
2018-Jul-01 06:30N 51°05' E 001°29'713.3
2018-Jul-01 06:00N 51°09' E 001°37'612.2
2018-Jul-01 05:30N 51°13' E 001°44'611.7
2018-Jul-01 05:00N 51°18' E 001°49'611.3
2018-Jul-01 04:30N 51°24' E 001°52'510.6
2018-Jul-01 04:00N 51°28' E 001°56'510.7
2018-Jul-01 03:30N 51°32' E 002°02'611.0
2018-Jul-01 03:00N 51°36' E 002°08'611.1
2018-Jul-01 02:30N 51°40' E 002°14'611.1
2018-Jul-01 02:00N 51°44' E 002°21'611.7
2018-Jul-01 01:30N 51°48' E 002°27'612.2
2018-Jul-01 01:00N 51°53' E 002°33'612.5
2018-Jul-01 00:30N 51°59' E 002°35'713.4
2018-Jul-01 00:00N 52°06' E 002°36'713.7
2018-Jun-30 23:31N 52°13' E 002°38'714.2
2018-Jun-30 23:00N 52°19' E 002°43'714.1
2018-Jun-30 22:31N 52°25' E 002°49'714.1
2018-Jun-30 22:00N 52°31' E 002°55'714.0
2018-Jun-30 21:30N 52°37' E 003°00'713.7
2018-Jun-30 21:00N 52°43' E 003°06'713.3
2018-Jun-30 20:30N 52°49' E 003°11'612.9
2018-Jun-30 20:00N 52°55' E 003°15'612.5
2018-Jun-30 19:30N 53°01' E 003°19'612.1
2018-Jun-30 19:00N 53°07' E 003°22'611.9
2018-Jun-30 18:30N 53°13' E 003°25'611.4
2018-Jun-30 17:59N 53°18' E 003°27'611.3
2018-Jun-30 17:30N 53°24' E 003°30'611.5
2018-Jun-30 17:00N 53°29' E 003°33'611.7
2018-Jun-30 16:30N 53°35' E 003°36'612.2
2018-Jun-30 16:00N 53°41' E 003°39'612.1
2018-Jun-30 15:29N 53°45' E 003°45'613.0
2018-Jun-30 15:00N 53°49' E 003°53'713.1
2018-Jun-30 14:30N 53°53' E 004°02'713.1
2018-Jun-30 14:00N 53°57' E 004°11'613.0
2018-Jun-30 13:30N 54°01' E 004°20'1112.5
2018-Jun-30 12:38N 54°10' E 004°31'512.5
2018-Jun-30 12:13N 54°14' E 004°36'312.4
2018-Jun-30 12:00N 54°16' E 004°39'612.4
2018-Jun-30 11:29N 54°21' E 004°45'2612.1
2018-Jun-30 09:21N 54°42' E 005°12'2812.1
2018-Jun-30 07:04N 55°05' E 005°39'212.2
2018-Jun-30 06:56N 55°06' E 005°41'1312.4
2018-Jun-30 05:54N 55°17' E 005°53'11612.6
2018-Jun-29 20:42N 56°53' E 007°49'7112.0
2018-Jun-29 14:48N 57°40' E 009°27'412.3
2018-Jun-29 14:30N 57°41' E 009°33'37 3.0
2018-Jun-29 02:15N 57°40' E 010°42'310.6
2018-Jun-29 01:57N 57°39' E 010°47'612.8
2018-Jun-29 01:30N 57°36' E 010°56'713.2
2018-Jun-29 01:00N 57°33' E 011°07'713.2
2018-Jun-29 00:30N 57°31' E 011°19'611.7
2018-Jun-29 00:00N 57°27' E 011°27'611.5
2018-Jun-28 23:30N 57°21' E 011°31'611.4
2018-Jun-28 23:00N 57°16' E 011°34'12111.2
2018-Jun-28 12:12N 55°16' E 011°04'411.9
2018-Jun-28 11:50N 55°12' E 011°06'413.1
2018-Jun-28 11:30N 55°08' E 011°03'713.7
2018-Jun-28 11:00N 55°01' E 011°02'713.1
2018-Jun-28 10:30N 54°56' E 010°56'714.0
2018-Jun-28 10:00N 54°49' E 010°52'713.4
2018-Jun-28 09:30N 54°42' E 010°52'713.2
2018-Jun-28 09:00N 54°39' E 011°02'713.5
2018-Jun-28 08:31N 54°36' E 011°13'612.9
2018-Jun-28 08:00N 54°33' E 011°23'713.4
2018-Jun-28 07:30N 54°30' E 011°33'713.2
2018-Jun-28 07:00N 54°27' E 011°43'713.2
2018-Jun-28 06:30N 54°26' E 011°55'612.9
2018-Jun-28 06:01N 54°27' E 012°06'510.6
2018-Jun-28 05:30N 54°30' E 012°13'612.5
2018-Jun-28 05:01N 54°36' E 012°16'5 9.5
2018-Jun-28 04:30N 54°38' E 012°23'510.4
2018-Jun-28 04:00N 54°41' E 012°30'510.9
2018-Jun-28 03:30N 54°45' E 012°38'613.0
2018-Jun-28 03:01N 54°48' E 012°48'713.0
2018-Jun-28 02:31N 54°50' E 012°58'713.1
2018-Jun-28 02:00N 54°52' E 013°09'713.1
2018-Jun-28 01:30N 54°54' E 013°20'612.6
2018-Jun-28 01:01N 54°57' E 013°30'612.6
2018-Jun-28 00:30N 54°59' E 013°40'612.6
2018-Jun-28 00:00N 55°01' E 013°51'612.7
2018-Jun-27 23:30N 55°04' E 014°00'612.5
2018-Jun-27 23:00N 55°08' E 014°08'612.7
2018-Jun-27 22:30N 55°13' E 014°16'612.8
2018-Jun-27 22:00N 55°18' E 014°23'612.6
2018-Jun-27 21:30N 55°23' E 014°30'612.9
2018-Jun-27 21:00N 55°27' E 014°38'612.9
2018-Jun-27 20:30N 55°31' E 014°48'612.9
2018-Jun-27 20:00N 55°34' E 014°58'712.9
2018-Jun-27 19:30N 55°37' E 015°08'612.8
2018-Jun-27 19:00N 55°40' E 015°17'612.8
2018-Jun-27 18:30N 55°43' E 015°27'713.0
2018-Jun-27 18:00N 55°47' E 015°37'612.7
2018-Jun-27 17:30N 55°50' E 015°47'612.5
2018-Jun-27 17:00N 55°53' E 015°57'612.5
2018-Jun-27 16:30N 55°56' E 016°06'612.8
2018-Jun-27 16:00N 55°59' E 016°16'612.8
2018-Jun-27 15:30N 56°03' E 016°26'612.8
2018-Jun-27 15:00N 56°06' E 016°36'612.6
2018-Jun-27 14:30N 56°10' E 016°45'612.6
2018-Jun-27 14:01N 56°13' E 016°54'612.5
2018-Jun-27 13:30N 56°17' E 017°03'612.6
2018-Jun-27 13:00N 56°21' E 017°12'612.7
2018-Jun-27 12:30N 56°25' E 017°21'612.7
2018-Jun-27 12:00N 56°29' E 017°31'612.7
2018-Jun-27 11:30N 56°33' E 017°40'612.7
2018-Jun-27 11:00N 56°37' E 017°48'712.7
2018-Jun-27 10:29N 56°41' E 017°58'613.1
2018-Jun-27 10:00N 56°45' E 018°07'712.8
2018-Jun-27 09:29N 56°48' E 018°17'10712.7
2018-Jun-27 01:07N 58°13' E 020°17'312.4
2018-Jun-27 00:53N 58°16' E 020°20'612.3
2018-Jun-27 00:25N 58°20' E 020°27'2412.4
2018-Jun-26 22:28N 58°40' E 020°54'912.6
2018-Jun-26 21:43N 58°47' E 021°04'1412.3
2018-Jun-26 20:36N 58°59' E 021°20'112.5
2018-Jun-26 20:29N 58°60' E 021°22'612.5
2018-Jun-26 20:01N 59°05' E 021°29'612.6
2018-Jun-26 19:30N 59°10' E 021°36'612.5
2018-Jun-26 19:00N 59°14' E 021°45'612.7
2018-Jun-26 18:30N 59°18' E 021°55'2112.5
2018-Jun-26 16:48N 59°31' E 022°28'1012.6
2018-Jun-26 16:01N 59°34' E 022°47'612.6
2018-Jun-26 15:30N 59°36' E 022°59'611.9
2018-Jun-26 15:00N 59°37' E 023°10'612.4
2018-Jun-26 14:30N 59°39' E 023°22'612.2
2018-Jun-26 14:00N 59°41' E 023°34'612.1
2018-Jun-26 13:30N 59°42' E 023°45'812.3
2018-Jun-26 12:53N 59°44' E 023°60'512.3
2018-Jun-26 12:30N 59°45' E 024°09'612.5
2018-Jun-26 12:00N 59°47' E 024°21'612.0
2018-Jun-26 11:30N 59°48' E 024°33'612.5
2018-Jun-26 11:00N 59°49' E 024°45'612.4
2018-Jun-26 10:30N 59°51' E 024°57'612.2
2018-Jun-26 10:00N 59°52' E 025°09'612.3
2018-Jun-26 09:30N 59°53' E 025°21'712.7
2018-Jun-26 08:59N 59°54' E 025°34'612.4
2018-Jun-26 08:30N 59°55' E 025°45'612.7
2018-Jun-26 08:00N 59°57' E 025°58'612.6
2018-Jun-26 07:30N 59°58' E 026°10'612.1
2018-Jun-26 07:00N 59°60' E 026°22'612.2
2018-Jun-26 06:30N 60°01' E 026°34'814.6
2018-Jun-26 05:57N 60°00' E 026°50'511.6
2018-Jun-26 05:30N 59°59' E 026°60'510.4
2018-Jun-26 05:00N 60°02' E 027°09'612.4
2018-Jun-26 04:30N 60°05' E 027°20'612.2
2018-Jun-26 04:00N 60°08' E 027°31'612.3
2018-Jun-26 03:30N 60°11' E 027°41'611.8
2018-Jun-26 03:00N 60°11' E 027°53'712.4
2018-Jun-26 02:29N 60°10' E 028°06'612.2
2018-Jun-26 02:00N 60°08' E 028°17'612.5
2018-Jun-26 01:30N 60°04' E 028°27'612.4
2018-Jun-26 01:01N 60°03' E 028°39'612.5
2018-Jun-26 00:30N 60°03' E 028°52'612.8
2018-Jun-26 00:00N 60°03' E 029°05'913.1
2018-Jun-25 23:21N 60°02' E 029°22'4 9.9
2018-Jun-25 23:00N 60°02' E 029°29'611.3
2018-Jun-25 22:30N 59°60' E 029°40'510.0
2018-Jun-25 22:00N 59°58' E 029°48'510.7
2018-Jun-25 21:30N 59°56' E 029°58'5 9.6
2018-Jun-25 21:00N 59°54' E 030°07'3 5.8
2018-Jun-25 20:30N 59°53' E 030°13'0 0.9
2018-Jun-25 20:00N 59°54' E 030°14'0 0.0
2018-Jun-25 19:27N 59°54' E 030°14'0 0.0
2018-Jun-25 18:54N 59°54' E 030°14'0 0.0
2018-Jun-25 18:15N 59°54' E 030°14'0 0.0
2018-Jun-25 17:59N 59°54' E 030°14'0 0.0
2018-Jun-25 17:30N 59°54' E 030°14'0 0.0
2018-Jun-25 16:57N 59°54' E 030°14'0 0.0
2018-Jun-25 16:30N 59°54' E 030°14'0 0.0
2018-Jun-25 15:59N 59°54' E 030°14'0 0.0
2018-Jun-25 15:20N 59°54' E 030°14'0 0.0
2018-Jun-25 15:00N 59°54' E 030°14'0 0.0
2018-Jun-25 14:11N 59°54' E 030°14'0 0.0
2018-Jun-25 13:53N 59°54' E 030°14'0 0.0
2018-Jun-25 13:23N 59°54' E 030°14'0 0.0
2018-Jun-25 12:36N 59°54' E 030°14'0 0.0
2018-Jun-25 12:30N 59°54' E 030°14'0 0.0
2018-Jun-25 11:54N 59°54' E 030°14'0 0.0
2018-Jun-25 11:23N 59°54' E 030°14'0 0.0
2018-Jun-25 10:54N 59°54' E 030°14'0 0.0
2018-Jun-25 10:22N 59°54' E 030°14'0 0.0
2018-Jun-25 09:59N 59°54' E 030°14'0 0.0
2018-Jun-25 09:11N 59°54' E 030°14'0 0.0
2018-Jun-25 06:48N 59°54' E 030°14'0 0.0
2018-Jun-25 04:51N 59°54' E 030°14'0 0.0
2018-Jun-25 04:29N 59°54' E 030°14'0 0.0
2018-Jun-25 03:56N 59°54' E 030°14'0 0.0
2018-Jun-25 03:30N 59°54' E 030°14'0 0.0
2018-Jun-25 02:59N 59°54' E 030°14'0 0.0
2018-Jun-25 02:20N 59°54' E 030°14'0 0.0
2018-Jun-25 01:47N 59°54' E 030°14'0 0.0
2018-Jun-25 01:30N 59°54' E 030°14'0 0.0
2018-Jun-25 01:00N 59°54' E 030°14'0 0.0
2018-Jun-25 00:29N 59°54' E 030°14'0 0.0
2018-Jun-24 23:57N 59°54' E 030°14'0 0.0
2018-Jun-24 23:29N 59°54' E 030°14'0 0.0
2018-Jun-24 22:59N 59°54' E 030°14'0 0.0
2018-Jun-24 22:29N 59°54' E 030°14'0 0.0
2018-Jun-24 21:59N 59°54' E 030°14'0 0.0
2018-Jun-24 21:29N 59°54' E 030°14'0 0.0
2018-Jun-24 20:56N 59°54' E 030°14'0 0.0
2018-Jun-24 19:12N 59°54' E 030°14'0 0.0
2018-Jun-24 18:56N 59°54' E 030°14'0 0.0
2018-Jun-24 18:20N 59°54' E 030°14'0 0.0
2018-Jun-24 18:00N 59°54' E 030°14'0 0.0
2018-Jun-24 17:30N 59°54' E 030°14'0 0.0
2018-Jun-24 16:56N 59°54' E 030°14'0 0.0
2018-Jun-24 16:09N 59°54' E 030°14'0 0.0
2018-Jun-24 16:00N 59°54' E 030°14'0 0.0
2018-Jun-24 15:24N 59°54' E 030°14'0 0.0
2018-Jun-24 14:41N 59°54' E 030°14'0 0.0
2018-Jun-24 14:24N 59°54' E 030°14'0 0.0
2018-Jun-24 13:45N 59°54' E 030°14'0 0.0
2018-Jun-24 13:29N 59°54' E 030°14'0 0.0
2018-Jun-24 11:26N 59°54' E 030°14'0 0.0
2018-Jun-24 10:47N 59°54' E 030°14'0 0.0
2018-Jun-24 10:24N 59°54' E 030°14'0 0.0
2018-Jun-24 09:59N 59°54' E 030°14'0 0.0
2018-Jun-24 09:28N 59°54' E 030°14'0 0.0
2018-Jun-24 08:54N 59°54' E 030°14'0 0.0
2018-Jun-24 08:28N 59°54' E 030°14'0 0.0
2018-Jun-24 07:58N 59°54' E 030°14'0 0.0
2018-Jun-24 07:27N 59°54' E 030°14'0 0.0
2018-Jun-24 06:09N 59°54' E 030°14'0 0.0
2018-Jun-24 05:59N 59°54' E 030°14'0 0.0
2018-Jun-24 05:29N 59°54' E 030°14'0 0.0
2018-Jun-24 04:48N 59°54' E 030°14'0 0.0
2018-Jun-24 04:29N 59°54' E 030°14'0 0.0
2018-Jun-24 04:00N 59°54' E 030°14'0 0.0
2018-Jun-24 03:29N 59°54' E 030°14'0 0.0
2018-Jun-24 02:48N 59°54' E 030°14'0 0.0
2018-Jun-24 02:29N 59°54' E 030°14'0 0.0
2018-Jun-24 02:00N 59°54' E 030°14'0 0.0
2018-Jun-24 01:30N 59°54' E 030°14'0 0.0
2018-Jun-24 00:59N 59°54' E 030°14'0 0.0
2018-Jun-24 00:29N 59°54' E 030°14'0 0.0
2018-Jun-23 23:59N 59°54' E 030°14'0 0.0
2018-Jun-23 23:29N 59°54' E 030°14'0 0.0
2018-Jun-23 22:59N 59°54' E 030°14'0 0.0
2018-Jun-23 22:27N 59°54' E 030°14'0 0.0
2018-Jun-23 21:53N 59°54' E 030°14'0 0.0
2018-Jun-23 21:29N 59°54' E 030°14'0 0.0
2018-Jun-23 20:10N 59°54' E 030°14'0 0.0
2018-Jun-23 20:00N 59°54' E 030°14'0 0.0
2018-Jun-23 19:07N 59°54' E 030°14'0 0.0
2018-Jun-23 18:53N 59°54' E 030°14'0 0.0
2018-Jun-23 18:30N 59°54' E 030°14'0 0.0
2018-Jun-23 17:56N 59°54' E 030°14'0 0.0
2018-Jun-23 17:12N 59°54' E 030°14'0 0.0
2018-Jun-23 16:54N 59°54' E 030°14'0 0.0
2018-Jun-23 16:19N 59°54' E 030°14'0 0.0
2018-Jun-23 15:59N 59°54' E 030°14'0 0.0
2018-Jun-23 15:29N 59°54' E 030°14'0 0.0
2018-Jun-23 14:59N 59°54' E 030°14'0 0.0
2018-Jun-23 14:30N 59°54' E 030°14'0 0.0
2018-Jun-23 13:56N 59°54' E 030°14'0 0.0
2018-Jun-23 13:29N 59°54' E 030°14'0 0.0
2018-Jun-23 12:53N 59°54' E 030°14'0 0.0
2018-Jun-23 12:26N 59°54' E 030°14'0 0.0
2018-Jun-23 12:00N 59°54' E 030°14'0 0.0
2018-Jun-23 11:30N 59°54' E 030°14'0 0.0
2018-Jun-23 10:54N 59°54' E 030°14'0 0.0
2018-Jun-23 10:14N 59°54' E 030°14'0 0.0
2018-Jun-23 09:56N 59°54' E 030°14'0 0.0
2018-Jun-23 09:27N 59°54' E 030°14'0 0.0
2018-Jun-23 08:41N 59°54' E 030°14'0 0.0
2018-Jun-23 08:30N 59°54' E 030°14'0 0.0
2018-Jun-23 07:57N 59°54' E 030°14'0 0.0
2018-Jun-23 07:26N 59°54' E 030°14'0 0.0
2018-Jun-23 06:53N 59°54' E 030°14'0 0.0
2018-Jun-23 06:30N 59°54' E 030°14'0 0.0
2018-Jun-23 06:00N 59°54' E 030°14'0 0.0
2018-Jun-23 05:27N 59°54' E 030°14'0 0.0
2018-Jun-23 04:57N 59°54' E 030°14'0 0.0
2018-Jun-23 04:21N 59°54' E 030°14'0 0.0
2018-Jun-23 03:56N 59°54' E 030°14'0 0.0
2018-Jun-23 03:30N 59°54' E 030°14'0 0.0
2018-Jun-23 03:00N 59°54' E 030°14'0 0.0
2018-Jun-23 02:26N 59°54' E 030°14'0 0.0
2018-Jun-23 01:54N 59°54' E 030°14'0 0.0
2018-Jun-23 01:30N 59°54' E 030°14'0 0.0
2018-Jun-23 00:59N 59°54' E 030°14'0 0.0
2018-Jun-23 00:23N 59°54' E 030°14'0 0.0
2018-Jun-22 23:59N 59°54' E 030°14'0 0.0
2018-Jun-22 23:02N 59°54' E 030°14'0 0.0
2018-Jun-22 22:59N 59°54' E 030°14'0 0.0
2018-Jun-22 22:21N 59°54' E 030°14'0 0.0
2018-Jun-22 21:59N 59°54' E 030°14'0 0.0
2018-Jun-22 21:29N 59°54' E 030°14'0 0.0
2018-Jun-22 20:57N 59°54' E 030°14'0 0.0
2018-Jun-22 20:30N 59°54' E 030°14'0 0.0
2018-Jun-22 19:51N 59°54' E 030°14'0 0.0
2018-Jun-22 19:27N 59°54' E 030°14'0 0.0
2018-Jun-22 18:59N 59°54' E 030°14'0 0.0
2018-Jun-22 18:23N 59°54' E 030°14'0 0.0
2018-Jun-22 17:56N 59°54' E 030°14'0 0.0
2018-Jun-22 17:23N 59°54' E 030°14'0 0.0
2018-Jun-22 16:56N 59°54' E 030°14'0 0.0
2018-Jun-22 16:26N 59°54' E 030°14'0 0.0
2018-Jun-22 15:59N 59°54' E 030°14'0 0.0
2018-Jun-22 15:30N 59°54' E 030°14'0 0.0
2018-Jun-22 14:59N 59°54' E 030°14'0 0.0
2018-Jun-22 14:29N 59°54' E 030°14'0 0.0
2018-Jun-22 13:57N 59°54' E 030°14'0 0.0
2018-Jun-22 13:29N 59°54' E 030°14'0 0.0
2018-Jun-22 12:56N 59°54' E 030°14'0 0.0
2018-Jun-22 12:30N 59°54' E 030°14'0 0.0
2018-Jun-22 11:56N 59°54' E 030°14'0 0.0
2018-Jun-22 11:29N 59°54' E 030°14'0 0.0
2018-Jun-22 10:59N 59°54' E 030°14'0 0.0
2018-Jun-22 10:26N 59°54' E 030°14'0 0.0
2018-Jun-22 09:56N 59°54' E 030°14'0 0.0
2018-Jun-22 09:29N 59°54' E 030°14'0 0.0
2018-Jun-22 08:59N 59°54' E 030°14'0 0.0
2018-Jun-22 08:29N 59°54' E 030°14'0 0.0
2018-Jun-22 07:56N 59°54' E 030°14'0 0.0
2018-Jun-22 07:29N 59°54' E 030°14'0 0.0
2018-Jun-22 06:59N 59°54' E 030°14'0 0.0
2018-Jun-22 06:29N 59°54' E 030°14'0 0.0
2018-Jun-22 05:59N 59°54' E 030°14'0 0.0
2018-Jun-22 05:29N 59°54' E 030°14'0 0.0
2018-Jun-22 04:59N 59°54' E 030°14'0 0.0
2018-Jun-22 04:29N 59°54' E 030°14'0 0.0
2018-Jun-22 03:59N 59°54' E 030°14'0 0.0
2018-Jun-22 03:29N 59°54' E 030°14'0 0.0
2018-Jun-22 02:59N 59°54' E 030°14'0 0.0
2018-Jun-22 02:29N 59°54' E 030°14'  

Dump ship's entire track history